createdAt,value
2022-10-26T00:01:53.172Z,17.97
2022-10-26T00:04:21.992Z,17.43
2022-10-26T00:06:51.988Z,17.83
2022-10-26T00:09:20.151Z,17.83
2022-10-26T00:11:49.044Z,17.17
2022-10-26T00:14:18.009Z,18.73
2022-10-26T00:16:48.541Z,17.67
2022-10-26T00:19:16.860Z,17.80
2022-10-26T00:21:45.040Z,18.23
2022-10-26T00:24:15.403Z,17.80
2022-10-26T00:26:43.835Z,18.43
2022-10-26T00:29:18.435Z,17.23
2022-10-26T00:31:46.555Z,17.93
2022-10-26T00:34:23.300Z,17.73
2022-10-26T00:36:52.038Z,19.03
2022-10-26T00:39:21.999Z,18.63
2022-10-26T00:41:52.898Z,18.70
2022-10-26T00:45:01.810Z,19.27
2022-10-26T00:47:39.863Z,18.53
2022-10-26T00:50:12.087Z,18.33
2022-10-26T00:52:44.946Z,18.10
2022-10-26T00:55:15.011Z,18.43
2022-10-26T00:57:46.666Z,18.90
2022-10-26T01:00:19.085Z,17.73
2022-10-26T01:02:49.336Z,18.67
2022-10-26T01:05:20.955Z,17.60
2022-10-26T01:07:51.319Z,18.07
2022-10-26T01:10:21.839Z,17.90
2022-10-26T01:12:51.538Z,17.67
2022-10-26T01:15:22.454Z,18.23
2022-10-26T01:17:58.121Z,19.47
2022-10-26T01:20:54.932Z,18.23
2022-10-26T01:23:32.589Z,18.13
2022-10-26T01:26:30.228Z,18.30
2022-10-26T01:29:34.055Z,18.77
2022-10-26T01:32:14.545Z,17.87
2022-10-26T01:34:47.104Z,18.67
2022-10-26T01:37:27.371Z,18.93
2022-10-26T01:40:01.078Z,18.10
2022-10-26T01:42:36.633Z,17.97
2022-10-26T01:45:08.382Z,17.63
2022-10-26T01:47:40.075Z,17.77
2022-10-26T01:50:13.072Z,18.00
2022-10-26T01:52:45.250Z,17.37
2022-10-26T01:55:48.359Z,17.73
2022-10-26T01:58:44.367Z,19.97
2022-10-26T02:01:25.939Z,19.10
2022-10-26T02:04:04.140Z,20.57
2022-10-26T02:06:41.337Z,20.97
2022-10-26T02:09:21.525Z,20.77
2022-10-26T02:11:55.966Z,21.53
2022-10-26T02:14:35.057Z,22.53
2022-10-26T02:17:10.020Z,21.10
2022-10-26T02:19:45.999Z,21.60
2022-10-26T02:22:18.801Z,21.43
2022-10-26T02:24:51.095Z,20.33
2022-10-26T02:27:24.085Z,22.20
2022-10-26T02:29:54.905Z,22.60
2022-10-26T02:32:28.444Z,21.77
2022-10-26T02:35:01.117Z,23.57
2022-10-26T02:37:30.982Z,22.27
2022-10-26T02:40:07.729Z,24.53
2022-10-26T02:42:37.380Z,24.00
2022-10-26T02:45:11.081Z,24.27
2022-10-26T02:47:39.733Z,24.20
2022-10-26T02:50:11.073Z,23.73
2022-10-26T02:52:46.922Z,23.17
2022-10-26T02:55:20.704Z,24.67
2022-10-26T02:57:56.151Z,23.40
2022-10-26T03:00:25.123Z,23.33
2022-10-26T03:02:57.199Z,24.13
2022-10-26T03:05:29.110Z,23.17
2022-10-26T03:07:57.916Z,22.70
2022-10-26T03:10:27.076Z,23.33
2022-10-26T03:12:56.952Z,22.67
2022-10-26T03:15:25.231Z,23.77
2022-10-26T03:17:56.982Z,22.93
2022-10-26T03:20:27.072Z,22.83
2022-10-26T03:22:59.180Z,23.00
2022-10-26T03:25:31.102Z,22.07
2022-10-26T03:28:00.932Z,21.90
2022-10-26T03:30:33.095Z,22.90
2022-10-26T03:33:01.596Z,22.70
2022-10-26T03:35:32.391Z,21.53
2022-10-26T03:38:00.756Z,20.60
2022-10-26T03:40:29.943Z,21.53
2022-10-26T03:43:01.080Z,21.20
2022-10-26T03:45:29.221Z,21.53
2022-10-26T03:48:00.719Z,19.93
2022-10-26T03:50:30.333Z,20.27
2022-10-26T03:52:58.439Z,20.67
2022-10-26T03:55:29.813Z,20.63
2022-10-26T03:57:57.932Z,20.60
2022-10-26T04:00:30.222Z,21.37
2022-10-26T04:03:01.128Z,20.67
2022-10-26T04:05:35.278Z,20.83
2022-10-26T04:08:04.121Z,21.87
2022-10-26T04:10:32.860Z,22.07
2022-10-26T04:13:05.127Z,21.43
2022-10-26T04:15:33.355Z,23.43
2022-10-26T04:18:04.607Z,21.67
2022-10-26T04:20:36.764Z,21.80
2022-10-26T04:23:07.007Z,20.47
2022-10-26T04:25:38.710Z,21.50
2022-10-26T04:28:09.139Z,22.20
2022-10-26T04:30:40.965Z,22.67
2022-10-26T04:33:10.337Z,22.10
2022-10-26T04:35:40.762Z,22.60
2022-10-26T04:38:08.957Z,22.70
2022-10-26T04:40:38.126Z,24.00
2022-10-26T04:43:09.137Z,22.00
2022-10-26T04:45:37.273Z,22.43
2022-10-26T04:48:08.477Z,21.97
2022-10-26T04:50:37.245Z,22.40
2022-10-26T04:53:10.631Z,22.83
2022-10-26T04:55:39.178Z,21.93
2022-10-26T04:58:08.123Z,21.63
2022-10-26T05:00:36.747Z,22.50
2022-10-26T05:03:06.952Z,21.03
2022-10-26T05:05:37.341Z,22.27
2022-10-26T05:08:07.119Z,21.50
2022-10-26T05:10:36.174Z,21.13
2022-10-26T05:13:04.470Z,20.43
2022-10-26T05:15:32.847Z,23.10
2022-10-26T05:18:11.175Z,22.13
2022-10-26T05:20:39.667Z,22.57
2022-10-26T05:23:19.188Z,21.70
2022-10-26T05:25:48.297Z,21.87
2022-10-26T05:28:21.491Z,20.97
2022-10-26T05:30:49.688Z,18.80
2022-10-26T05:33:18.053Z,17.03
2022-10-26T05:35:46.239Z,19.97
2022-10-26T05:38:17.749Z,18.97
2022-10-26T05:40:50.697Z,18.67
2022-10-26T05:43:20.159Z,18.90
2022-10-26T05:45:49.169Z,18.80
2022-10-26T05:48:17.402Z,19.00
2022-10-26T05:50:46.214Z,18.70
2022-10-26T05:53:18.812Z,18.37
2022-10-26T05:55:51.014Z,18.07
2022-10-26T05:58:20.153Z,19.47
2022-10-26T06:01:07.692Z,18.87
2022-10-26T06:03:47.216Z,18.43
2022-10-26T06:06:16.031Z,17.70
2022-10-26T06:08:48.507Z,17.23
2022-10-26T06:11:18.054Z,17.80
2022-10-26T06:13:47.192Z,18.33
2022-10-26T06:16:32.504Z,19.30
2022-10-26T06:19:11.932Z,18.10
2022-10-26T06:21:54.860Z,17.33
2022-10-26T06:24:37.632Z,17.33
2022-10-26T06:27:19.478Z,16.60
2022-10-26T06:29:59.753Z,16.47
2022-10-26T06:32:31.224Z,16.20
2022-10-26T06:35:12.576Z,16.87
2022-10-26T06:37:42.834Z,16.70
2022-10-26T06:40:20.653Z,17.00
2022-10-26T06:42:50.050Z,15.73
2022-10-26T06:45:19.257Z,16.40
2022-10-26T06:48:41.552Z,15.30
2022-10-26T06:51:19.244Z,15.83
2022-10-26T06:53:57.498Z,15.87
2022-10-26T06:56:28.483Z,15.83
2022-10-26T06:59:04.785Z,14.93
2022-10-26T07:01:35.289Z,15.97
2022-10-26T07:04:03.613Z,16.60
2022-10-26T07:06:34.377Z,16.17
2022-10-26T07:09:06.670Z,15.73
2022-10-26T07:11:36.166Z,15.80
2022-10-26T07:14:05.491Z,16.70
2022-10-26T07:16:34.030Z,16.10
2022-10-26T07:19:03.235Z,15.77
2022-10-26T07:21:31.507Z,18.90
2022-10-26T07:24:00.260Z,14.60
2022-10-26T07:26:28.713Z,12.60
2022-10-26T07:29:02.247Z,13.00
2022-10-26T07:31:31.216Z,13.80
2022-10-26T07:34:00.270Z,13.90
2022-10-26T07:36:30.573Z,14.40
2022-10-26T07:39:03.423Z,15.13
2022-10-26T07:41:31.581Z,14.13
2022-10-26T07:44:02.301Z,14.73
2022-10-26T07:46:33.079Z,15.67
2022-10-26T07:49:01.363Z,15.77
2022-10-26T07:51:30.029Z,16.83
2022-10-26T07:53:58.992Z,18.00
2022-10-26T07:56:28.070Z,13.70
2022-10-26T07:58:57.151Z,14.80
2022-10-26T08:01:27.119Z,16.53
2022-10-26T08:03:58.709Z,18.70
2022-10-26T08:06:27.065Z,17.77
2022-10-26T08:08:56.259Z,17.80
2022-10-26T08:11:24.433Z,18.73
2022-10-26T08:13:53.698Z,17.60
2022-10-26T08:16:22.446Z,17.83
2022-10-26T08:18:53.925Z,19.30
2022-10-26T08:21:35.827Z,16.97
2022-10-26T08:24:08.921Z,17.30
2022-10-26T08:26:37.176Z,17.03
2022-10-26T08:29:08.492Z,16.97
2022-10-26T08:31:36.769Z,16.30
2022-10-26T08:34:07.256Z,15.33
2022-10-26T08:36:35.471Z,15.67
2022-10-26T08:39:07.123Z,16.17
2022-10-26T08:41:38.850Z,15.00
2022-10-26T08:44:18.914Z,15.57
2022-10-26T08:46:51.347Z,16.00
2022-10-26T08:49:26.481Z,18.03
2022-10-26T08:51:59.265Z,15.03
2022-10-26T08:54:36.281Z,15.30
2022-10-26T08:57:14.384Z,16.87
2022-10-26T08:59:49.093Z,16.83
2022-10-26T09:02:18.865Z,13.83
2022-10-26T09:04:50.456Z,13.93
2022-10-26T09:07:37.281Z,13.87
2022-10-26T09:10:18.345Z,16.13
2022-10-26T09:12:55.690Z,16.63
2022-10-26T09:15:34.359Z,17.97
2022-10-26T09:18:13.967Z,18.23
2022-10-26T09:20:59.561Z,21.60
2022-10-26T09:23:43.297Z,19.70
2022-10-26T09:26:16.102Z,20.13
2022-10-26T09:28:47.037Z,20.77
2022-10-26T09:31:18.243Z,19.30
2022-10-26T09:33:47.329Z,19.67
2022-10-26T09:36:21.135Z,18.93
2022-10-26T09:38:57.203Z,18.97
2022-10-26T09:41:32.080Z,19.90
2022-10-26T09:44:07.949Z,21.67
2022-10-26T09:46:47.327Z,20.70
2022-10-26T09:49:19.416Z,21.13
2022-10-26T09:51:51.081Z,20.90
2022-10-26T09:54:22.200Z,21.47
2022-10-26T09:56:58.462Z,20.93
2022-10-26T09:59:28.281Z,21.33
2022-10-26T10:01:56.712Z,19.40
2022-10-26T10:04:26.126Z,19.60
2022-10-26T10:07:14.315Z,19.37
2022-10-26T10:09:42.494Z,19.40
2022-10-26T10:12:21.617Z,19.40
2022-10-26T10:15:00.672Z,19.37
2022-10-26T10:17:29.249Z,19.77
2022-10-26T10:20:12.609Z,20.07
2022-10-26T10:22:55.431Z,20.57
2022-10-26T10:25:34.312Z,20.73
2022-10-26T10:28:03.311Z,19.60
2022-10-26T10:30:37.039Z,19.10
2022-10-26T10:33:10.506Z,19.40
2022-10-26T10:38:45.511Z,18.10
2022-10-26T10:41:30.351Z,18.63
2022-10-26T10:44:09.043Z,17.63
2022-10-26T10:46:38.560Z,18.60
2022-10-26T10:49:09.355Z,17.73
2022-10-26T10:51:43.336Z,16.27
2022-10-26T10:54:24.296Z,15.70
2022-10-26T10:56:54.500Z,15.53
2022-10-26T10:59:45.382Z,15.07
2022-10-26T11:02:34.728Z,15.77
2022-10-26T11:05:27.354Z,14.77
2022-10-26T11:08:02.949Z,14.93
2022-10-26T11:10:38.131Z,13.60
2022-10-26T11:13:14.489Z,11.10
2022-10-26T11:15:45.462Z,11.73
2022-10-26T11:18:22.581Z,12.97
2022-10-26T11:23:40.345Z,11.33
2022-10-26T11:26:16.345Z,11.97
2022-10-26T11:28:53.208Z,12.63
2022-10-26T11:31:26.956Z,12.07
2022-10-26T11:34:14.341Z,11.87
2022-10-26T11:36:45.328Z,11.63
2022-10-26T11:39:22.224Z,11.97
2022-10-26T11:41:58.384Z,13.27
2022-10-26T11:44:34.549Z,13.30
2022-10-26T11:47:05.969Z,13.33
2022-10-26T11:49:44.356Z,13.00
2022-10-26T11:52:22.747Z,13.77
2022-10-26T11:54:55.123Z,12.70
2022-10-26T11:57:28.143Z,12.60
2022-10-26T11:59:59.715Z,13.03
2022-10-26T12:02:28.201Z,13.53
2022-10-26T12:05:03.276Z,14.20
2022-10-26T12:07:35.410Z,13.43
2022-10-26T12:10:05.835Z,13.40
2022-10-26T12:12:43.091Z,12.53
2022-10-26T12:15:30.722Z,12.97
2022-10-26T12:18:16.224Z,12.47
2022-10-26T12:21:03.226Z,12.23
2022-10-26T12:23:40.890Z,13.77
2022-10-26T12:26:40.884Z,11.17
2022-10-26T12:29:38.193Z,11.67
2022-10-26T12:32:51.430Z,11.03
2022-10-26T12:35:38.006Z,11.57
2022-10-26T12:38:43.106Z,11.80
2022-10-26T12:41:22.197Z,12.43
2022-10-26T12:43:50.777Z,11.43
2022-10-26T12:46:45.583Z,12.00
2022-10-26T12:49:58.623Z,11.43
2022-10-26T12:52:47.486Z,12.70
2022-10-26T12:55:45.874Z,11.50
2022-10-26T12:58:32.632Z,12.53
2022-10-26T13:01:26.929Z,12.53
2022-10-26T13:04:09.449Z,12.10
2022-10-26T13:06:51.507Z,12.33
2022-10-26T13:09:25.561Z,13.07
2022-10-26T13:11:56.923Z,13.03
2022-10-26T13:14:28.430Z,13.10
2022-10-26T13:16:57.228Z,12.80
2022-10-26T13:19:32.499Z,12.33
2022-10-26T13:22:01.482Z,10.83
2022-10-26T13:24:33.444Z,10.50
2022-10-26T13:27:29.023Z,10.10
2022-10-26T13:30:37.105Z,10.30
2022-10-26T13:33:14.496Z,10.40
2022-10-26T13:35:45.498Z,9.60
2022-10-26T13:38:14.820Z,10.73
2022-10-26T13:40:44.601Z,10.23
2022-10-26T13:43:19.941Z,10.10
2022-10-26T13:45:55.506Z,9.73
2022-10-26T13:48:32.415Z,9.67
2022-10-26T13:51:15.346Z,9.63
2022-10-26T13:53:48.403Z,9.77
2022-10-26T13:56:28.859Z,9.73
2022-10-26T13:59:03.120Z,9.67
2022-10-26T14:01:32.249Z,9.80
2022-10-26T14:04:03.423Z,9.90
2022-10-26T14:06:39.257Z,9.43
2022-10-26T14:09:13.299Z,9.93
2022-10-26T14:11:49.248Z,9.83
2022-10-26T14:14:46.173Z,9.33
2022-10-26T14:17:21.276Z,10.33
2022-10-26T14:19:50.440Z,9.90
2022-10-26T14:22:24.291Z,10.30
2022-10-26T14:24:57.525Z,10.00
2022-10-26T14:27:29.126Z,10.63
2022-10-26T14:30:21.025Z,9.70
2022-10-26T14:32:48.861Z,10.40
2022-10-26T14:35:18.465Z,9.10
2022-10-26T14:38:15.940Z,9.70
2022-10-26T14:40:44.963Z,9.27
2022-10-26T14:43:22.196Z,9.43
2022-10-26T14:45:52.214Z,9.83
2022-10-26T14:48:27.486Z,10.57
2022-10-26T14:51:03.545Z,10.33
2022-10-26T14:53:38.426Z,9.67
2022-10-26T14:56:18.680Z,10.07
2022-10-26T14:58:47.395Z,10.77
2022-10-26T15:01:16.924Z,10.83
2022-10-26T15:03:45.983Z,11.17
2022-10-26T15:06:39.513Z,10.73
2022-10-26T15:09:34.431Z,11.73
2022-10-26T15:12:05.289Z,12.13
2022-10-26T15:14:36.197Z,11.47
2022-10-26T15:17:04.816Z,11.50
2022-10-26T15:19:35.612Z,11.63
2022-10-26T15:22:03.744Z,13.43
2022-10-26T15:24:38.780Z,11.83
2022-10-26T15:27:16.515Z,12.97
2022-10-26T15:29:49.215Z,12.00
2022-10-26T15:32:29.140Z,12.70
2022-10-26T15:35:29.471Z,45.83
2022-10-26T15:37:59.000Z,44.13
2022-10-26T15:40:33.007Z,63.47
2022-10-26T15:43:03.239Z,113.63
2022-10-26T15:45:34.951Z,81.67
2022-10-26T15:48:20.517Z,50.40
2022-10-26T15:50:48.879Z,64.73
2022-10-26T15:53:21.327Z,68.03
2022-10-26T15:55:53.343Z,60.43
2022-10-26T15:58:25.419Z,38.07
2022-10-26T16:00:53.663Z,27.33
2022-10-26T16:03:24.103Z,34.27
2022-10-26T16:05:57.771Z,31.37
2022-10-26T16:08:28.819Z,29.53
2022-10-26T16:10:59.147Z,28.60
2022-10-26T16:13:30.684Z,23.00
2022-10-26T16:16:01.069Z,22.83
2022-10-26T16:18:29.199Z,19.00
2022-10-26T16:20:57.334Z,18.70
2022-10-26T16:23:25.545Z,17.77
2022-10-26T16:25:53.671Z,14.77
2022-10-26T16:28:23.315Z,15.77
2022-10-26T16:30:51.431Z,14.23
2022-10-26T16:33:19.753Z,13.47
2022-10-26T16:35:56.579Z,13.10
2022-10-26T16:38:31.586Z,13.37
2022-10-26T16:41:03.520Z,13.90
2022-10-26T16:43:37.720Z,13.73
2022-10-26T16:46:11.261Z,14.10
2022-10-26T16:48:46.505Z,13.37
2022-10-26T16:51:16.922Z,13.77
2022-10-26T16:53:47.048Z,13.83
2022-10-26T16:56:17.328Z,13.50
2022-10-26T16:58:50.516Z,14.00
2022-10-26T17:01:20.214Z,12.70
2022-10-26T17:03:50.242Z,13.87
2022-10-26T17:06:21.008Z,12.23
2022-10-26T17:08:50.559Z,12.27
2022-10-26T17:11:21.382Z,13.07
2022-10-26T17:13:58.324Z,13.27
2022-10-26T17:16:26.522Z,12.80
2022-10-26T17:18:55.184Z,11.53
2022-10-26T17:21:31.355Z,15.37
2022-10-26T17:24:00.513Z,71.13
2022-10-26T17:26:28.974Z,36.00
2022-10-26T17:28:59.364Z,21.30
2022-10-26T17:31:28.542Z,13.63
2022-10-26T17:33:58.242Z,11.60
2022-10-26T17:36:27.574Z,13.20
2022-10-26T17:38:57.900Z,12.57
2022-10-26T17:41:26.450Z,12.30
2022-10-26T17:43:55.304Z,12.53
2022-10-26T17:46:26.675Z,12.27
2022-10-26T17:48:56.298Z,12.77
2022-10-26T17:51:24.872Z,46.07
2022-10-26T17:53:53.503Z,89.10
2022-10-26T17:56:23.204Z,35.77
2022-10-26T17:58:56.539Z,20.93
2022-10-26T18:01:26.985Z,18.33
2022-10-26T18:03:55.326Z,15.80
2022-10-26T18:06:23.828Z,14.57
2022-10-26T18:08:52.247Z,15.00
2022-10-26T18:11:27.245Z,13.00
2022-10-26T18:13:57.592Z,13.37
2022-10-26T18:16:28.722Z,13.63
2022-10-26T18:19:01.648Z,13.50
2022-10-26T18:21:31.881Z,13.33
2022-10-26T18:24:00.543Z,14.70
2022-10-26T18:26:30.540Z,14.33
2022-10-26T18:29:01.478Z,15.67
2022-10-26T18:31:32.843Z,15.90
2022-10-26T18:34:02.452Z,15.07
2022-10-26T18:36:34.128Z,16.43
2022-10-26T18:39:03.161Z,14.70
2022-10-26T18:41:31.326Z,16.20
2022-10-26T18:44:01.739Z,16.57
2022-10-26T18:46:35.495Z,15.93
2022-10-26T18:49:05.271Z,16.60
2022-10-26T18:51:35.929Z,16.80
2022-10-26T18:54:04.326Z,19.47
2022-10-26T18:56:33.234Z,46.30
2022-10-26T18:59:05.711Z,53.67
2022-10-26T19:01:36.735Z,36.50
2022-10-26T19:04:06.865Z,30.40
2022-10-26T19:06:40.186Z,21.50
2022-10-26T19:09:10.084Z,21.53
2022-10-26T19:11:39.172Z,19.70
2022-10-26T19:14:08.119Z,18.17
2022-10-26T19:16:47.247Z,19.07
2022-10-26T19:19:17.591Z,17.60
2022-10-26T19:21:49.529Z,18.87
2022-10-26T19:24:19.902Z,18.13
2022-10-26T19:26:49.026Z,17.07
2022-10-26T19:29:19.686Z,17.23
2022-10-26T19:31:52.828Z,17.87
2022-10-26T19:34:21.766Z,42.73
2022-10-26T19:36:50.035Z,81.70
2022-10-26T19:39:19.195Z,52.13
2022-10-26T19:41:51.283Z,31.03
2022-10-26T19:44:22.039Z,31.37
2022-10-26T19:46:54.705Z,26.07
2022-10-26T19:49:26.567Z,23.93
2022-10-26T19:51:58.002Z,23.43
2022-10-26T19:54:26.655Z,22.27
2022-10-26T19:56:55.605Z,22.57
2022-10-26T19:59:26.976Z,20.23
2022-10-26T20:01:57.748Z,20.37
2022-10-26T20:04:26.621Z,115.97
2022-10-26T20:06:54.884Z,48.00
2022-10-26T20:09:23.371Z,25.43
2022-10-26T20:11:55.184Z,20.10
2022-10-26T20:14:23.609Z,21.47
2022-10-26T20:16:54.401Z,20.10
2022-10-26T20:19:24.073Z,18.73
2022-10-26T20:21:55.786Z,18.87
2022-10-26T20:24:24.643Z,18.40
2022-10-26T20:26:53.617Z,18.80
2022-10-26T20:29:22.726Z,58.40
2022-10-26T20:31:55.829Z,27.53
2022-10-26T20:37:02.302Z,20.77
2022-10-26T20:39:33.536Z,20.30
2022-10-26T20:42:02.451Z,24.10
2022-10-26T20:44:36.589Z,20.87
2022-10-26T20:47:07.489Z,18.83
2022-10-26T20:49:38.637Z,19.63
2022-10-26T20:52:26.020Z,18.83
2022-10-26T20:55:04.618Z,18.47
2022-10-26T20:57:38.517Z,19.73
2022-10-26T21:00:09.072Z,19.23
2022-10-26T21:02:38.597Z,20.70
2022-10-26T21:05:12.220Z,20.17
2022-10-26T21:07:40.664Z,23.63
2022-10-26T21:10:09.636Z,23.47
2022-10-26T21:12:38.013Z,21.10
2022-10-26T21:15:07.306Z,20.67
2022-10-26T21:17:35.578Z,24.30
2022-10-26T21:20:04.690Z,23.53
2022-10-26T21:22:34.289Z,22.50
2022-10-26T21:25:02.545Z,21.77
2022-10-26T21:27:31.617Z,20.67
2022-10-26T21:30:00.302Z,22.83
2022-10-26T21:32:28.535Z,22.47
2022-10-26T21:34:57.678Z,24.30
2022-10-26T21:37:26.980Z,38.27
2022-10-26T21:39:57.654Z,45.03
2022-10-26T21:42:26.471Z,29.57
2022-10-26T21:44:55.642Z,26.67
2022-10-26T21:47:23.828Z,27.07
2022-10-26T21:49:52.646Z,26.93
2022-10-26T21:52:22.927Z,25.53
2022-10-26T21:54:51.663Z,26.70
2022-10-26T21:57:21.155Z,27.40
2022-10-26T21:59:50.301Z,29.07
2022-10-26T22:02:18.603Z,28.33
2022-10-26T22:04:47.651Z,26.93
2022-10-26T22:07:17.035Z,28.90
2022-10-26T22:10:00.305Z,28.50
2022-10-26T22:12:40.586Z,28.10
2022-10-26T22:15:10.658Z,27.70
2022-10-26T22:17:39.923Z,28.67
2022-10-26T22:20:10.619Z,28.50
2022-10-26T22:22:41.469Z,29.50
2022-10-26T22:25:10.366Z,30.63
2022-10-26T22:27:39.842Z,28.23
2022-10-26T22:30:10.003Z,27.33
2022-10-26T22:32:38.119Z,28.97
2022-10-26T22:35:28.060Z,29.50
2022-10-26T22:37:57.099Z,28.67
2022-10-26T22:40:25.659Z,28.47
2022-10-26T22:42:55.622Z,28.17
2022-10-26T22:45:26.703Z,26.43
2022-10-26T22:47:54.962Z,28.73
2022-10-26T22:50:23.181Z,27.97
2022-10-26T22:52:51.703Z,27.70
2022-10-26T22:55:20.061Z,29.63
2022-10-26T22:57:48.760Z,28.27
2022-10-26T23:00:22.677Z,28.57
2022-10-26T23:02:51.740Z,28.90
2022-10-26T23:05:20.673Z,28.23
2022-10-26T23:07:49.374Z,30.63
2022-10-26T23:10:21.371Z,32.33
2022-10-26T23:12:50.885Z,30.87
2022-10-26T23:15:19.717Z,30.70
2022-10-26T23:17:49.570Z,32.17
2022-10-26T23:20:18.502Z,34.27
2022-10-26T23:22:46.826Z,41.80
2022-10-26T23:25:16.418Z,33.27
2022-10-26T23:27:45.516Z,34.10
2022-10-26T23:30:14.713Z,36.37
2022-10-26T23:32:43.705Z,36.57
2022-10-26T23:35:13.285Z,44.13
2022-10-26T23:37:45.645Z,38.83
2022-10-26T23:40:14.112Z,51.57
2022-10-26T23:42:42.699Z,54.70
2022-10-26T23:45:11.743Z,51.30
2022-10-26T23:47:41.060Z,44.60
2022-10-26T23:50:14.691Z,44.83
2022-10-26T23:52:43.614Z,50.03
2022-10-26T23:55:12.818Z,51.83
2022-10-26T23:57:41.669Z,45.83
